sensor_id;sensor_type;location;lat;lon;timestamp;pressure;altitude;pressure_sealevel;temperature;humidity
70458;BME280;57919;56.194;95.716;2023-03-21T00:04:13;100788.00;;;-16.83;61.17
70458;BME280;57919;56.194;95.716;2023-03-21T00:14:15;100784.25;;;-16.51;60.64
70458;BME280;57919;56.194;95.716;2023-03-21T00:24:19;100778.09;;;-16.34;60.97
70458;BME280;57919;56.194;95.716;2023-03-21T00:34:23;100790.91;;;-16.18;61.37
70458;BME280;57919;56.194;95.716;2023-03-21T00:44:26;100779.75;;;-15.75;60.78
70458;BME280;57919;56.194;95.716;2023-03-21T00:54:29;100786.97;;;-15.89;61.57
70458;BME280;57919;56.194;95.716;2023-03-21T01:04:32;100786.75;;;-15.09;61.03
70458;BME280;57919;56.194;95.716;2023-03-21T01:14:38;100785.25;;;-14.08;60.75
70458;BME280;57919;56.194;95.716;2023-03-21T01:24:39;100791.53;;;-13.78;58.47
70458;BME280;57919;56.194;95.716;2023-03-21T01:34:41;100797.56;;;-13.26;58.68
70458;BME280;57919;56.194;95.716;2023-03-21T01:45:02;100785.53;;;-12.36;57.08
70458;BME280;57919;56.194;95.716;2023-03-21T01:55:20;100781.94;;;-10.68;52.20
70458;BME280;57919;56.194;95.716;2023-03-21T02:05:53;100791.75;;;-9.21;51.88
70458;BME280;57919;56.194;95.716;2023-03-21T02:37:02;100788.75;;;-7.47;47.02
70458;BME280;57919;56.194;95.716;2023-03-21T02:47:29;100780.88;;;-7.46;47.13
70458;BME280;57919;56.194;95.716;2023-03-21T02:57:33;100773.88;;;-6.16;46.55
70458;BME280;57919;56.194;95.716;2023-03-21T03:18:17;100751.22;;;-5.20;44.34
70458;BME280;57919;56.194;95.716;2023-03-21T03:28:27;100751.19;;;-4.73;42.34
70458;BME280;57919;56.194;95.716;2023-03-21T03:38:33;100733.66;;;-3.16;42.04
70458;BME280;57919;56.194;95.716;2023-03-21T03:48:51;100723.94;;;-1.06;37.33
70458;BME280;57919;56.194;95.716;2023-03-21T03:58:56;100724.63;;;-0.47;37.36
70458;BME280;57919;56.194;95.716;2023-03-21T04:09:13;100713.59;;;0.16;35.20
70458;BME280;57919;56.194;95.716;2023-03-21T04:19:17;100695.59;;;0.27;35.50
70458;BME280;57919;56.194;95.716;2023-03-21T04:29:19;100690.25;;;0.29;34.43
70458;BME280;57919;56.194;95.716;2023-03-21T04:39:54;100697.72;;;0.87;35.06
70458;BME280;57919;56.194;95.716;2023-03-21T04:49:56;100679.47;;;1.06;32.14
70458;BME280;57919;56.194;95.716;2023-03-21T04:59:59;100679.97;;;0.86;32.70
70458;BME280;57919;56.194;95.716;2023-03-21T05:10:01;100671.47;;;0.72;32.99
70458;BME280;57919;56.194;95.716;2023-03-21T05:20:05;100664.69;;;0.59;32.21
70458;BME280;57919;56.194;95.716;2023-03-21T05:30:12;100655.19;;;-0.30;32.73
70458;BME280;57919;56.194;95.716;2023-03-21T05:40:16;100647.53;;;0.35;32.81
70458;BME280;57919;56.194;95.716;2023-03-21T05:50:20;100627.38;;;0.60;32.01
70458;BME280;57919;56.194;95.716;2023-03-21T06:00:36;100630.41;;;0.45;32.37
70458;BME280;57919;56.194;95.716;2023-03-21T06:10:54;100615.91;;;0.21;32.65
70458;BME280;57919;56.194;95.716;2023-03-21T06:20:57;100607.69;;;-0.07;31.90
70458;BME280;57919;56.194;95.716;2023-03-21T06:30:59;100599.13;;;-0.61;32.50
70458;BME280;57919;56.194;95.716;2023-03-21T06:41:04;100596.72;;;-1.19;33.73
70458;BME280;57919;56.194;95.716;2023-03-21T06:51:12;100587.69;;;-1.58;33.91
70458;BME280;57919;56.194;95.716;2023-03-21T07:01:20;100576.25;;;-1.62;33.35
70458;BME280;57919;56.194;95.716;2023-03-21T07:11:31;100576.31;;;-2.20;33.70
70458;BME280;57919;56.194;95.716;2023-03-21T07:21:33;100570.03;;;-2.79;34.88
70458;BME280;57919;56.194;95.716;2023-03-21T07:31:35;100561.63;;;-3.13;34.76
70458;BME280;57919;56.194;95.716;2023-03-21T07:41:38;100573.41;;;-3.43;35.16
70458;BME280;57919;56.194;95.716;2023-03-21T07:51:58;100554.38;;;-3.83;36.00
70458;BME280;57919;56.194;95.716;2023-03-21T08:02:00;100555.38;;;-3.98;36.31
70458;BME280;57919;56.194;95.716;2023-03-21T08:12:03;100552.75;;;-4.01;35.26
70458;BME280;57919;56.194;95.716;2023-03-21T08:22:06;100548.59;;;-4.36;35.73
70458;BME280;57919;56.194;95.716;2023-03-21T08:32:07;100541.53;;;-4.31;36.24
70458;BME280;57919;56.194;95.716;2023-03-21T08:42:10;100533.56;;;-3.30;33.80
70458;BME280;57919;56.194;95.716;2023-03-21T08:52:12;100539.84;;;-3.40;34.43
70458;BME280;57919;56.194;95.716;2023-03-21T09:02:15;100540.19;;;-3.75;34.93
70458;BME280;57919;56.194;95.716;2023-03-21T09:12:18;100535.00;;;-3.84;35.24
70458;BME280;57919;56.194;95.716;2023-03-21T09:22:22;100535.06;;;-3.93;36.02
70458;BME280;57919;56.194;95.716;2023-03-21T09:32:25;100531.28;;;-3.63;35.18
70458;BME280;57919;56.194;95.716;2023-03-21T09:43:02;100541.06;;;-3.73;35.10
70458;BME280;57919;56.194;95.716;2023-03-21T09:53:23;100540.56;;;-4.19;36.45
70458;BME280;57919;56.194;95.716;2023-03-21T10:03:32;100546.09;;;-4.54;37.43
70458;BME280;57919;56.194;95.716;2023-03-21T10:13:48;100539.97;;;-4.62;37.80
70458;BME280;57919;56.194;95.716;2023-03-21T10:23:55;100544.41;;;-4.70;37.08
70458;BME280;57919;56.194;95.716;2023-03-21T10:34:06;100543.63;;;-4.91;37.24
70458;BME280;57919;56.194;95.716;2023-03-21T10:44:15;100542.81;;;-5.08;36.79
70458;BME280;57919;56.194;95.716;2023-03-21T10:54:20;100545.53;;;-5.32;36.99
70458;BME280;57919;56.194;95.716;2023-03-21T11:04:26;100549.09;;;-5.56;37.70
70458;BME280;57919;56.194;95.716;2023-03-21T11:14:39;100555.28;;;-5.68;38.09
70458;BME280;57919;56.194;95.716;2023-03-21T11:24:48;100557.97;;;-5.94;38.71
70458;BME280;57919;56.194;95.716;2023-03-21T11:45:27;100574.63;;;-6.24;39.43
70458;BME280;57919;56.194;95.716;2023-03-21T12:05:39;100585.03;;;-6.77;40.72
70458;BME280;57919;56.194;95.716;2023-03-21T12:15:54;100595.44;;;-7.03;42.03
70458;BME280;57919;56.194;95.716;2023-03-21T12:56:38;100616.84;;;-7.78;43.63
70458;BME280;57919;56.194;95.716;2023-03-21T13:06:42;100614.94;;;-7.98;43.98
70458;BME280;57919;56.194;95.716;2023-03-21T13:16:52;100628.78;;;-8.14;44.40
70458;BME280;57919;56.194;95.716;2023-03-21T13:27:02;100633.59;;;-8.58;45.98
70458;BME280;57919;56.194;95.716;2023-03-21T13:37:14;100644.50;;;-8.94;46.37
70458;BME280;57919;56.194;95.716;2023-03-21T13:57:48;100663.81;;;-9.50;46.09
70458;BME280;57919;56.194;95.716;2023-03-21T14:07:56;100666.31;;;-9.57;46.29
70458;BME280;57919;56.194;95.716;2023-03-21T14:18:00;100675.00;;;-9.58;46.35
70458;BME280;57919;56.194;95.716;2023-03-21T14:28:28;100685.91;;;-9.85;46.17
70458;BME280;57919;56.194;95.716;2023-03-21T14:38:36;100693.09;;;-10.23;46.72
70458;BME280;57919;56.194;95.716;2023-03-21T14:48:38;100702.25;;;-10.45;47.01
70458;BME280;57919;56.194;95.716;2023-03-21T14:58:41;100711.25;;;-10.74;47.47
70458;BME280;57919;56.194;95.716;2023-03-21T15:08:56;100704.50;;;-11.04;48.22
70458;BME280;57919;56.194;95.716;2023-03-21T15:19:00;100719.38;;;-11.01;47.97
70458;BME280;57919;56.194;95.716;2023-03-21T15:29:04;100724.47;;;-11.07;47.85
70458;BME280;57919;56.194;95.716;2023-03-21T15:39:10;100726.75;;;-11.21;48.28
70458;BME280;57919;56.194;95.716;2023-03-21T15:49:25;100727.75;;;-11.52;48.72
70458;BME280;57919;56.194;95.716;2023-03-21T15:59:34;100732.94;;;-11.54;49.20
70458;BME280;57919;56.194;95.716;2023-03-21T16:09:42;100724.06;;;-11.96;49.43
70458;BME280;57919;56.194;95.716;2023-03-21T16:19:44;100728.28;;;-12.33;50.53
70458;BME280;57919;56.194;95.716;2023-03-21T16:29:46;100732.56;;;-12.35;49.90
70458;BME280;57919;56.194;95.716;2023-03-21T16:39:48;100725.53;;;-12.69;51.02
70458;BME280;57919;56.194;95.716;2023-03-21T16:49:50;100731.22;;;-13.11;51.41
70458;BME280;57919;56.194;95.716;2023-03-21T16:59:52;100738.63;;;-13.24;51.92
70458;BME280;57919;56.194;95.716;2023-03-21T17:09:54;100744.19;;;-13.41;53.16
70458;BME280;57919;56.194;95.716;2023-03-21T17:19:56;100754.94;;;-13.57;53.99
70458;BME280;57919;56.194;95.716;2023-03-21T17:29:58;100748.41;;;-13.71;53.81
70458;BME280;57919;56.194;95.716;2023-03-21T17:40:00;100756.31;;;-13.68;54.31
70458;BME280;57919;56.194;95.716;2023-03-21T17:50:03;100753.03;;;-13.35;53.84
70458;BME280;57919;56.194;95.716;2023-03-21T18:00:06;100761.28;;;-13.49;53.53
70458;BME280;57919;56.194;95.716;2023-03-21T18:10:16;100776.63;;;-13.56;53.43
70458;BME280;57919;56.194;95.716;2023-03-21T18:20:22;100775.16;;;-13.75;54.07
70458;BME280;57919;56.194;95.716;2023-03-21T18:30:24;100784.66;;;-13.76;54.36
70458;BME280;57919;56.194;95.716;2023-03-21T18:40:25;100783.16;;;-13.94;55.00
70458;BME280;57919;56.194;95.716;2023-03-21T18:50:28;100785.63;;;-13.97;55.08
70458;BME280;57919;56.194;95.716;2023-03-21T19:00:30;100796.53;;;-14.08;54.88
70458;BME280;57919;56.194;95.716;2023-03-21T19:10:32;100793.91;;;-14.09;54.67
70458;BME280;57919;56.194;95.716;2023-03-21T19:20:34;100795.06;;;-14.25;55.05
70458;BME280;57919;56.194;95.716;2023-03-21T19:30:37;100801.91;;;-14.27;55.11
70458;BME280;57919;56.194;95.716;2023-03-21T19:40:39;100789.16;;;-14.45;55.11
70458;BME280;57919;56.194;95.716;2023-03-21T19:50:41;100799.34;;;-14.51;54.98
70458;BME280;57919;56.194;95.716;2023-03-21T20:00:43;100796.22;;;-14.64;55.49
70458;BME280;57919;56.194;95.716;2023-03-21T20:10:46;100800.28;;;-14.49;55.25
70458;BME280;57919;56.194;95.716;2023-03-21T20:20:48;100811.22;;;-14.57;55.44
70458;BME280;57919;56.194;95.716;2023-03-21T20:30:55;100819.13;;;-14.54;55.06
70458;BME280;57919;56.194;95.716;2023-03-21T20:40:59;100818.94;;;-14.59;54.73
70458;BME280;57919;56.194;95.716;2023-03-21T20:51:04;100809.28;;;-14.63;54.96
70458;BME280;57919;56.194;95.716;2023-03-21T21:01:08;100810.56;;;-14.74;55.37
70458;BME280;57919;56.194;95.716;2023-03-21T21:11:17;100817.13;;;-14.84;55.41
70458;BME280;57919;56.194;95.716;2023-03-21T21:21:19;100827.09;;;-14.94;55.91
70458;BME280;57919;56.194;95.716;2023-03-21T21:31:21;100822.75;;;-15.16;56.33
70458;BME280;57919;56.194;95.716;2023-03-21T21:41:22;100825.75;;;-15.28;56.22
70458;BME280;57919;56.194;95.716;2023-03-21T21:51:25;100835.75;;;-15.37;56.46
70458;BME280;57919;56.194;95.716;2023-03-21T22:01:28;100853.13;;;-15.57;57.06
70458;BME280;57919;56.194;95.716;2023-03-21T22:11:31;100857.31;;;-15.80;57.55
70458;BME280;57919;56.194;95.716;2023-03-21T22:21:33;100876.56;;;-15.94;57.78
70458;BME280;57919;56.194;95.716;2023-03-21T22:31:35;100878.22;;;-15.96;58.56
70458;BME280;57919;56.194;95.716;2023-03-21T22:41:39;100890.41;;;-16.13;59.21
70458;BME280;57919;56.194;95.716;2023-03-21T22:51:41;100898.91;;;-16.35;59.58
70458;BME280;57919;56.194;95.716;2023-03-21T23:01:44;100909.81;;;-16.42;59.63
70458;BME280;57919;56.194;95.716;2023-03-21T23:11:46;100925.94;;;-16.47;59.18
70458;BME280;57919;56.194;95.716;2023-03-21T23:21:50;100940.91;;;-16.59;58.99
70458;BME280;57919;56.194;95.716;2023-03-21T23:31:51;100954.78;;;-16.77;59.43
70458;BME280;57919;56.194;95.716;2023-03-21T23:41:53;100971.34;;;-16.91;59.95
70458;BME280;57919;56.194;95.716;2023-03-21T23:51:55;100975.47;;;-16.94;60.41
